This is the latest recevied weather packets stored in our database for station/object HA9OZD-18. If no packets are shown the sender has not sent any weather packets the latest 10 day(s).
| Time | Temp. | Humidity | Pressure | Rain* | Wind** | Luminosity | Snow |
|---|---|---|---|---|---|---|---|
| 1777708367 | 11.67° C | 45% | 1024.1 hPa | - | - | - | - |
| 1777704767 | 10° C | 55% | 1024 hPa | - | - | - | - |
| 1777701204 | 8.33° C | 57% | 1023.8 hPa | - | - | - | - |
| 1777701167 | 8.33° C | 57% | 1023.8 hPa | - | - | - | - |
| 1777697912 | 7.22° C | 56% | 1023.6 hPa | - | - | - | - |
| 1777697565 | 7.22° C | 56% | 1023.6 hPa | - | - | - | - |
| 1777693962 | 7.22° C | 55% | 1023.6 hPa | - | - | - | - |
| 1777690361 | 6.67° C | 54% | 1023.4 hPa | - | - | - | - |
| 1777686797 | 7.22° C | 52% | 1023.6 hPa | - | - | - | - |
| 1777686761 | 7.22° C | 52% | 1023.6 hPa | - | - | - | - |
| 1777683160 | 7.22° C | 53% | 1023.8 hPa | - | - | - | - |
| 1777679560 | 7.78° C | 52% | 1024.2 hPa | - | - | - | - |
| 1777676016 | 7.22° C | 52% | 1024.4 hPa | - | - | - | - |
| 1777675960 | 7.22° C | 52% | 1024.4 hPa | - | - | - | - |
| 1777672359 | 7.22° C | 53% | 1024.4 hPa | - | - | - | - |
| 1777668759 | 7.22° C | 52% | 1024.4 hPa | - | - | - | - |
| 1777665159 | 7.22° C | 51% | 1024.4 hPa | - | - | - | - |
| 1777661559 | 7.78° C | 48% | 1024.4 hPa | - | - | - | - |
| 1777657958 | 8.89° C | 46% | 1024 hPa | - | - | - | - |
| 1777654358 | 9.44° C | 44% | 1023.8 hPa | - | - | - | - |
| 1777650758 | 10.56° C | 41% | 1024 hPa | - | - | - | - |
| 1777647205 | 10.56° C | 40% | 1024.4 hPa | - | - | - | - |
| 1777647158 | 10.56° C | 40% | 1024.4 hPa | - | - | - | - |
| 1777643571 | 11.11° C | 37% | 1024.6 hPa | - | - | - | - |
| 1777639970 | 11.67° C | 35% | 1024.8 hPa | - | - | - | - |
* Rain since midnight (hover to see other rain measurements)
** Current wind speed in m/s (hover to see current wind gust speed)